createdAt,value
2018-11-29T00:00:26.154Z,99554.64
2018-11-29T00:02:54.412Z,99554.93
2018-11-29T00:05:23.918Z,99550.33
2018-11-29T00:07:52.256Z,99548.69
2018-11-29T00:10:21.567Z,99544.36
2018-11-29T00:12:49.880Z,99544.41
2018-11-29T00:15:18.428Z,99539.89
2018-11-29T00:17:46.692Z,99537.42
2018-11-29T00:20:18.696Z,99534.61
2018-11-29T00:22:47.732Z,99530.14
2018-11-29T00:25:17.475Z,99527.03
2018-11-29T00:27:46.198Z,99527.35
2018-11-29T00:30:18.322Z,99527.03
2018-11-29T00:32:46.592Z,99520.16
2018-11-29T00:35:15.489Z,99520.98
2018-11-29T00:37:43.774Z,99521.22
2018-11-29T00:40:16.777Z,99525.05
2018-11-29T00:42:45.786Z,99511.73
2018-11-29T00:45:14.645Z,99510.78
2018-11-29T00:47:43.106Z,99515.78
2018-11-29T00:50:12.296Z,99513.41
2018-11-29T00:52:41.383Z,99518.88
2018-11-29T00:55:12.555Z,99521.66
2018-11-29T00:57:40.922Z,99517.93
2018-11-29T01:00:14.909Z,99510.58
2018-11-29T01:02:43.310Z,99500.25
2018-11-29T01:05:11.648Z,99501.61
2018-11-29T01:07:39.990Z,99499.23
2018-11-29T01:10:13.977Z,99507.77
2018-11-29T01:12:42.343Z,99510.09
2018-11-29T01:15:17.282Z,99518.23
2018-11-29T01:17:47.141Z,99522.88
2018-11-29T01:20:16.411Z,99519.36
2018-11-29T01:22:44.704Z,99517.81
2018-11-29T01:25:13.800Z,99515.45
2018-11-29T01:27:42.745Z,99520.81
2018-11-29T01:30:18.867Z,99515.52
2018-11-29T01:32:47.097Z,99514.90
2018-11-29T01:35:16.390Z,99528.10
2018-11-29T01:37:44.663Z,99524.97
2018-11-29T01:40:19.861Z,99514.11
2018-11-29T01:42:49.329Z,99507.19
2018-11-29T01:45:17.545Z,99512.52
2018-11-29T01:47:45.716Z,99521.84
2018-11-29T01:50:13.942Z,99527.48
2018-11-29T01:52:42.113Z,99533.73
2018-11-29T01:55:10.492Z,99522.92
2018-11-29T01:57:38.761Z,99526.36
2018-11-29T02:00:09.287Z,99520.80
2018-11-29T02:02:38.038Z,99524.62
2018-11-29T02:05:07.588Z,99527.91
2018-11-29T02:07:36.056Z,99514.81
2018-11-29T02:10:10.213Z,99517.92
2018-11-29T02:12:38.448Z,99510.36
2018-11-29T02:15:07.434Z,99510.22
2018-11-29T02:17:35.913Z,99519.33
2018-11-29T02:20:05.326Z,99515.60
2018-11-29T02:22:33.533Z,99510.91
2018-11-29T02:25:01.768Z,99501.88
2018-11-29T02:27:29.922Z,99500.14
2018-11-29T02:29:58.176Z,99496.95
2018-11-29T02:32:26.404Z,99487.52
2018-11-29T02:34:54.569Z,99486.52
2018-11-29T02:37:22.742Z,99483.52
2018-11-29T02:39:50.913Z,99473.26
2018-11-29T02:42:19.189Z,99474.48
2018-11-29T02:44:47.370Z,99471.53
2018-11-29T02:47:16.008Z,99463.84
2018-11-29T02:49:44.217Z,99463.82
2018-11-29T02:52:12.392Z,99465.52
2018-11-29T02:54:40.635Z,99452.20
2018-11-29T02:57:08.835Z,99454.66
2018-11-29T02:59:37.043Z,99448.34
2018-11-29T03:02:05.488Z,99447.88
2018-11-29T03:04:33.664Z,99448.01
2018-11-29T03:07:01.852Z,99447.83
2018-11-29T03:09:30.016Z,99447.55
2018-11-29T03:11:58.777Z,99438.30
2018-11-29T03:14:26.981Z,99434.66
2018-11-29T03:16:55.217Z,99444.54
2018-11-29T03:19:23.391Z,99432.70
2018-11-29T03:21:51.562Z,99437.86
2018-11-29T03:24:19.896Z,99437.41
2018-11-29T03:26:48.151Z,99439.92
2018-11-29T03:29:16.328Z,99424.98
2018-11-29T03:31:44.518Z,99423.10
2018-11-29T03:34:12.780Z,99413.05
2018-11-29T03:36:40.973Z,99409.47
2018-11-29T03:39:09.216Z,99406.97
2018-11-29T03:41:37.609Z,99408.66
2018-11-29T03:44:05.788Z,99408.98
2018-11-29T03:46:34.034Z,99410.00
2018-11-29T03:49:02.221Z,99414.30
2018-11-29T03:51:30.387Z,99413.63
2018-11-29T03:53:58.605Z,99412.86
2018-11-29T03:56:26.768Z,99412.86
2018-11-29T03:58:55.024Z,99414.83
2018-11-29T04:01:23.210Z,99409.98
2018-11-29T04:03:51.496Z,99406.55
2018-11-29T04:06:19.697Z,99395.00
2018-11-29T04:08:47.911Z,99394.06
2018-11-29T04:11:16.077Z,99392.33
2018-11-29T04:13:44.261Z,99393.78
2018-11-29T04:16:12.430Z,99391.91
2018-11-29T04:18:40.666Z,99388.89
2018-11-29T04:21:08.828Z,99385.75
2018-11-29T04:23:37.021Z,99380.98
2018-11-29T04:26:05.895Z,99378.68
2018-11-29T04:28:34.084Z,99379.89
2018-11-29T04:31:02.241Z,99377.61
2018-11-29T04:33:30.609Z,99377.24
2018-11-29T04:35:58.858Z,99383.11
2018-11-29T04:38:27.097Z,99384.88
2018-11-29T04:40:55.397Z,99378.61
2018-11-29T04:43:23.584Z,99377.78
2018-11-29T04:46:02.948Z,99378.75
2018-11-29T04:48:31.182Z,99380.81
2018-11-29T04:50:59.359Z,99376.69
2018-11-29T04:53:27.529Z,99368.66
2018-11-29T04:55:55.740Z,99362.61
2018-11-29T04:58:24.008Z,99367.29
2018-11-29T05:00:52.250Z,99362.66
2018-11-29T05:03:20.677Z,99361.35
2018-11-29T05:05:48.921Z,99368.17
2018-11-29T05:08:17.626Z,99370.52
2018-11-29T05:10:45.781Z,99367.14
2018-11-29T05:13:14.040Z,99361.14
2018-11-29T05:15:42.488Z,99362.34
2018-11-29T05:18:12.256Z,99354.23
2018-11-29T05:20:41.928Z,99361.37
2018-11-29T05:23:11.788Z,99371.36
2018-11-29T05:25:42.086Z,99366.32
2018-11-29T05:28:10.300Z,99365.20
2018-11-29T05:30:38.536Z,99359.33
2018-11-29T05:33:06.709Z,99356.03
2018-11-29T05:35:34.986Z,99356.59
2018-11-29T05:38:04.097Z,99362.64
2018-11-29T05:40:32.276Z,99351.79
2018-11-29T05:43:00.498Z,99351.65
2018-11-29T05:45:28.786Z,99351.09
2018-11-29T05:47:56.973Z,99358.80
2018-11-29T05:50:25.498Z,99359.66
2018-11-29T05:52:53.733Z,99357.20
2018-11-29T05:55:22.005Z,99353.16
2018-11-29T05:57:50.334Z,99352.02
2018-11-29T06:00:18.659Z,99344.25
2018-11-29T06:02:46.856Z,99350.44
2018-11-29T06:05:16.125Z,99347.23
2018-11-29T06:07:44.289Z,99348.27
2018-11-29T06:10:12.542Z,99344.31
2018-11-29T06:12:40.799Z,99334.98
2018-11-29T06:15:10.728Z,99323.42
2018-11-29T06:17:38.958Z,99320.61
2018-11-29T06:20:14.975Z,99315.75
2018-11-29T06:22:43.210Z,99314.34
2018-11-29T06:25:11.652Z,99310.21
2018-11-29T06:27:39.870Z,99312.12
2018-11-29T06:30:12.691Z,99303.94
2018-11-29T06:32:40.896Z,99286.64
2018-11-29T06:35:09.057Z,99293.11
2018-11-29T06:37:37.358Z,99296.29
2018-11-29T06:40:07.964Z,99294.23
2018-11-29T06:42:36.346Z,99293.09
2018-11-29T06:45:05.226Z,99291.95
2018-11-29T06:47:33.506Z,99297.70
2018-11-29T06:50:01.750Z,99291.16
2018-11-29T06:52:29.922Z,99292.59
2018-11-29T06:54:58.240Z,99275.27
2018-11-29T06:57:26.418Z,99266.79
2018-11-29T06:59:54.654Z,99275.89
2018-11-29T07:02:22.886Z,99280.64
2018-11-29T07:04:51.120Z,99273.63
2018-11-29T07:07:19.280Z,99276.81
2018-11-29T07:09:47.510Z,99275.85
2018-11-29T07:12:15.682Z,99279.72
2018-11-29T07:14:43.914Z,99279.35
2018-11-29T07:17:12.861Z,99281.18
2018-11-29T07:19:41.077Z,99276.91
2018-11-29T07:22:09.377Z,99274.56
2018-11-29T07:24:37.551Z,99271.32
2018-11-29T07:27:05.817Z,99276.14
2018-11-29T07:29:34.544Z,99277.43
2018-11-29T07:32:02.762Z,99274.13
2018-11-29T07:34:30.955Z,99270.47
2018-11-29T07:36:59.472Z,99271.80
2018-11-29T07:39:27.668Z,99276.19
2018-11-29T07:41:55.900Z,99276.05
2018-11-29T07:44:24.178Z,99271.30
2018-11-29T07:46:52.438Z,99284.86
2018-11-29T07:49:20.703Z,99281.99
2018-11-29T07:51:48.886Z,99278.27
2018-11-29T07:54:17.168Z,99280.61
2018-11-29T07:56:45.390Z,99286.58
2018-11-29T07:59:13.615Z,99287.64
2018-11-29T08:01:41.792Z,99292.05
2018-11-29T08:04:09.980Z,99296.75
2018-11-29T08:06:38.151Z,99295.95
2018-11-29T08:09:07.634Z,99290.33
2018-11-29T08:11:35.842Z,99300.19
2018-11-29T08:14:04.008Z,99303.59
2018-11-29T08:16:35.270Z,99303.84
2018-11-29T08:19:03.465Z,99300.06
2018-11-29T08:21:31.745Z,99316.11
2018-11-29T08:23:59.956Z,99310.20
2018-11-29T08:26:28.235Z,99307.01
2018-11-29T08:28:56.422Z,99305.75
2018-11-29T08:31:24.627Z,99308.08
2018-11-29T08:33:52.804Z,99311.38
2018-11-29T08:36:21.092Z,99306.06
2018-11-29T08:38:52.769Z,99308.00
2018-11-29T08:41:21.002Z,99301.30
2018-11-29T08:43:49.218Z,99306.58
2018-11-29T08:46:18.246Z,99298.95
2018-11-29T08:48:46.401Z,99297.52
2018-11-29T08:51:14.584Z,99299.30
2018-11-29T08:53:42.936Z,99301.94
2018-11-29T08:56:11.097Z,99301.94
2018-11-29T08:58:39.342Z,99304.92
2018-11-29T09:01:07.610Z,99293.16
2018-11-29T09:03:35.839Z,99298.58
2018-11-29T09:06:04.110Z,99298.48
2018-11-29T09:08:32.745Z,99290.23
2018-11-29T09:11:00.973Z,99287.69
2018-11-29T09:13:29.144Z,99287.36
2018-11-29T09:15:58.605Z,99281.82
2018-11-29T09:18:26.786Z,99274.66
2018-11-29T09:20:55.053Z,99265.52
2018-11-29T09:23:24.550Z,99270.37
2018-11-29T09:25:52.732Z,99255.67
2018-11-29T09:28:20.961Z,99246.78
2018-11-29T09:30:49.244Z,99242.34
2018-11-29T09:33:17.434Z,99227.24
2018-11-29T09:35:45.678Z,99209.18
2018-11-29T09:38:14.066Z,99178.86
2018-11-29T09:40:42.229Z,99175.45
2018-11-29T09:43:10.411Z,99204.20
2018-11-29T09:45:38.673Z,99222.28
2018-11-29T09:48:06.981Z,99241.52
2018-11-29T09:50:35.243Z,99279.73
2018-11-29T09:53:03.417Z,99282.69
2018-11-29T09:55:35.607Z,99248.14
2018-11-29T09:58:04.471Z,99247.18
2018-11-29T10:00:33.885Z,99255.68
2018-11-29T10:03:05.310Z,99244.08
2018-11-29T10:05:33.599Z,99220.77
2018-11-29T10:08:01.836Z,99239.19
2018-11-29T10:10:30.143Z,99244.47
2018-11-29T10:12:58.448Z,99234.57
2018-11-29T10:15:26.601Z,99231.46
2018-11-29T10:17:54.797Z,99242.09
2018-11-29T10:20:22.955Z,99238.12
2018-11-29T10:22:51.213Z,99236.17
2018-11-29T10:25:20.146Z,99232.00
2018-11-29T10:27:50.107Z,99219.56
2018-11-29T10:30:23.205Z,99226.67
2018-11-29T10:32:52.356Z,99237.76
2018-11-29T10:35:20.569Z,99225.02
2018-11-29T10:37:48.848Z,99210.36
2018-11-29T10:40:17.305Z,99191.92
2018-11-29T10:42:45.621Z,99180.86
2018-11-29T10:45:17.729Z,99183.77
2018-11-29T10:47:52.297Z,99151.95
2018-11-29T10:50:16.906Z,99142.14
2018-11-29T10:52:45.179Z,99146.94
2018-11-29T10:55:18.143Z,99106.69
2018-11-29T10:57:46.323Z,99075.62
2018-11-29T11:00:35.042Z,99081.97
2018-11-29T11:03:10.901Z,99077.53
2018-11-29T11:05:39.082Z,99108.98
2018-11-29T11:08:09.106Z,99126.44
2018-11-29T11:10:38.121Z,99149.69
2018-11-29T11:13:06.809Z,99119.19
2018-11-29T11:15:35.083Z,99070.81
2018-11-29T11:18:03.477Z,99069.18
2018-11-29T11:20:33.318Z,99037.56
2018-11-29T11:23:03.864Z,99087.53
2018-11-29T11:25:32.058Z,99095.25
2018-11-29T11:28:00.284Z,99075.88
2018-11-29T11:30:28.456Z,99070.41
2018-11-29T11:32:56.690Z,99081.15
2018-11-29T11:35:28.093Z,99098.18
2018-11-29T11:37:56.284Z,99081.33
2018-11-29T11:40:25.421Z,99084.11
2018-11-29T11:42:53.737Z,99083.33
2018-11-29T11:45:22.087Z,99079.83
2018-11-29T11:48:02.936Z,99065.94
2018-11-29T11:50:25.420Z,99067.84
2018-11-29T11:52:55.406Z,99065.27
2018-11-29T11:55:30.110Z,99061.66
2018-11-29T11:57:51.895Z,99040.27
2018-11-29T12:00:22.501Z,99043.02
2018-11-29T12:02:54.937Z,99042.45
2018-11-29T12:05:23.115Z,99052.94
2018-11-29T12:07:51.501Z,99045.24
2018-11-29T12:10:21.649Z,99048.27
2018-11-29T12:12:50.938Z,99036.11
2018-11-29T12:15:20.789Z,99040.15
2018-11-29T12:17:49.464Z,99030.42
2018-11-29T12:20:19.510Z,99022.76
2018-11-29T12:22:47.804Z,99010.77
2018-11-29T12:25:21.146Z,99001.27
2018-11-29T12:27:49.689Z,98989.51
2018-11-29T12:30:21.137Z,98984.07
2018-11-29T12:32:49.390Z,98984.50
2018-11-29T12:35:17.582Z,98980.92
2018-11-29T12:37:45.843Z,98975.69
2018-11-29T12:40:15.168Z,98976.69
2018-11-29T12:42:43.423Z,98978.63
2018-11-29T12:45:13.689Z,98978.91
2018-11-29T12:47:42.235Z,98975.64
2018-11-29T12:50:22.783Z,98968.69
2018-11-29T12:52:51.075Z,98984.95
2018-11-29T12:55:20.177Z,98979.58
2018-11-29T12:58:04.648Z,98969.41
2018-11-29T13:00:20.704Z,98958.17
2018-11-29T13:02:58.686Z,98965.58
2018-11-29T13:05:27.708Z,98967.92
2018-11-29T13:07:56.094Z,98960.34
2018-11-29T13:10:25.437Z,98959.91
2018-11-29T13:12:53.875Z,98948.16
2018-11-29T13:15:25.343Z,98949.48
2018-11-29T13:17:54.841Z,98952.92
2018-11-29T13:20:23.104Z,98950.27
2018-11-29T13:22:51.334Z,98941.67
2018-11-29T13:25:20.512Z,98939.65
2018-11-29T13:27:48.799Z,98934.97
2018-11-29T13:30:19.308Z,98930.05
2018-11-29T13:32:48.524Z,98922.57
2018-11-29T13:35:20.393Z,98931.30
2018-11-29T13:38:00.485Z,98932.16
2018-11-29T13:40:29.002Z,98932.70
2018-11-29T13:42:57.246Z,98942.37
2018-11-29T13:45:26.497Z,98943.45
2018-11-29T13:47:54.667Z,98941.80
2018-11-29T13:50:22.941Z,98936.14
2018-11-29T13:52:51.188Z,98926.17
2018-11-29T13:55:19.430Z,98924.70
2018-11-29T13:57:48.938Z,98918.45
2018-11-29T14:00:18.157Z,98910.93
2018-11-29T14:02:47.541Z,98915.81
2018-11-29T14:05:15.766Z,98917.48
2018-11-29T14:07:44.441Z,98902.09
2018-11-29T14:10:15.816Z,98879.77
2018-11-29T14:12:44.739Z,98883.16
2018-11-29T14:15:14.946Z,98881.09
2018-11-29T14:17:43.254Z,98892.39
2018-11-29T14:20:12.587Z,98891.16
2018-11-29T14:22:40.912Z,98891.74
2018-11-29T14:25:10.434Z,98891.83
2018-11-29T14:27:38.717Z,98870.99
2018-11-29T14:30:27.707Z,98875.47
2018-11-29T14:32:57.058Z,98870.99
2018-11-29T14:35:26.097Z,98874.65
2018-11-29T14:37:54.313Z,98869.57
2018-11-29T14:40:23.642Z,98872.08
2018-11-29T14:42:53.151Z,98860.67
2018-11-29T14:45:25.416Z,98858.81
2018-11-29T14:47:53.993Z,98859.41
2018-11-29T14:50:38.389Z,98865.10
2018-11-29T14:53:07.873Z,98855.91
2018-11-29T14:55:36.727Z,98863.03
2018-11-29T14:58:05.306Z,98857.19
2018-11-29T15:00:33.605Z,98852.31
2018-11-29T15:03:03.512Z,98851.77
2018-11-29T15:05:32.312Z,98856.83
2018-11-29T15:08:00.877Z,98854.27
2018-11-29T15:10:29.161Z,98853.09
2018-11-29T15:12:57.425Z,98844.63
2018-11-29T15:15:25.738Z,98849.66
2018-11-29T15:17:54.570Z,98850.02
2018-11-29T15:20:54.728Z,98863.63
2018-11-29T15:23:22.977Z,98872.21
2018-11-29T15:25:51.522Z,98881.94
2018-11-29T15:28:19.822Z,98885.67
2018-11-29T15:30:48.161Z,98873.48
2018-11-29T15:33:16.377Z,98881.42
2018-11-29T15:35:45.451Z,98881.53
2018-11-29T15:38:13.674Z,98872.68
2018-11-29T15:40:41.946Z,98870.59
2018-11-29T15:43:10.884Z,98862.56
2018-11-29T15:45:39.112Z,98866.08
2018-11-29T15:48:07.422Z,98862.86
2018-11-29T15:50:35.674Z,98861.28
2018-11-29T15:53:03.842Z,98859.67
2018-11-29T15:55:32.021Z,98853.66
2018-11-29T15:58:00.213Z,98854.92
2018-11-29T16:00:29.533Z,98866.37
2018-11-29T16:03:01.119Z,98872.72
2018-11-29T16:05:29.405Z,98882.51
2018-11-29T16:07:57.577Z,98873.94
2018-11-29T16:10:29.687Z,98863.73
2018-11-29T16:12:57.854Z,98866.67
2018-11-29T16:15:26.098Z,98872.25
2018-11-29T16:17:54.373Z,98866.05
2018-11-29T16:20:26.629Z,98865.45
2018-11-29T16:22:54.877Z,98855.72
2018-11-29T16:25:23.050Z,98861.75
2018-11-29T16:27:51.427Z,98868.66
2018-11-29T16:30:37.464Z,98880.06
2018-11-29T16:33:13.929Z,98897.22
2018-11-29T16:35:42.289Z,98896.40
2018-11-29T16:38:10.588Z,98900.62
2018-11-29T16:40:38.773Z,98898.58
2018-11-29T16:43:07.668Z,98894.22
2018-11-29T16:45:36.533Z,98903.75
2018-11-29T16:48:06.617Z,98899.55
2018-11-29T16:50:34.950Z,98903.72
2018-11-29T16:53:03.162Z,98890.22
2018-11-29T16:55:31.399Z,98889.06
2018-11-29T16:58:01.502Z,98892.05
2018-11-29T17:00:29.778Z,98896.82
2018-11-29T17:02:58.143Z,98908.95
2018-11-29T17:05:26.326Z,98908.58
2018-11-29T17:07:54.601Z,98907.73
2018-11-29T17:10:24.504Z,98912.83
2018-11-29T17:12:56.905Z,98912.06
2018-11-29T17:15:25.194Z,98915.98
2018-11-29T17:17:53.426Z,98909.65
2018-11-29T17:20:21.709Z,98908.53
2018-11-29T17:22:50.833Z,98914.67
2018-11-29T17:25:19.270Z,98907.72
2018-11-29T17:27:47.471Z,98904.13
2018-11-29T17:30:23.199Z,98900.35
2018-11-29T17:32:52.422Z,98909.72
2018-11-29T17:35:20.695Z,98913.98
2018-11-29T17:37:49.089Z,98912.44
2018-11-29T17:40:18.453Z,98912.95
2018-11-29T17:42:48.109Z,98911.43
2018-11-29T17:45:22.442Z,98909.09
2018-11-29T17:47:52.106Z,98913.35
2018-11-29T17:50:24.795Z,98917.52
2018-11-29T17:52:52.973Z,98917.07
2018-11-29T17:55:22.258Z,98923.77
2018-11-29T17:57:50.516Z,98927.57
2018-11-29T18:00:21.779Z,98927.37
2018-11-29T18:02:50.057Z,98934.27
2018-11-29T18:05:18.272Z,98944.82
2018-11-29T18:07:46.452Z,98943.61
2018-11-29T18:10:16.121Z,98944.37
2018-11-29T18:12:44.840Z,98947.97
2018-11-29T18:15:14.817Z,98938.14
2018-11-29T18:17:42.969Z,98937.02
2018-11-29T18:20:13.459Z,98936.86
2018-11-29T18:22:41.895Z,98927.15
2018-11-29T18:25:12.445Z,98922.64
2018-11-29T18:27:41.927Z,98925.56
2018-11-29T18:30:13.289Z,98923.86
2018-11-29T18:32:41.611Z,98925.27
2018-11-29T18:35:10.985Z,98909.67
2018-11-29T18:37:39.326Z,98912.42
2018-11-29T18:40:14.250Z,98924.23
2018-11-29T18:42:42.419Z,98925.81
2018-11-29T18:45:14.006Z,98916.97
2018-11-29T18:47:42.902Z,98903.66
2018-11-29T18:50:18.988Z,98912.92
2018-11-29T18:52:47.322Z,98924.91
2018-11-29T18:55:15.682Z,98921.96
2018-11-29T18:57:43.845Z,98933.48
2018-11-29T19:00:16.388Z,98934.23
2018-11-29T19:02:44.557Z,98928.73
2018-11-29T19:05:12.791Z,98927.05
2018-11-29T19:07:42.868Z,98930.65
2018-11-29T19:10:12.945Z,98933.55
2018-11-29T19:13:13.427Z,98930.45
2018-11-29T19:15:41.727Z,98932.74
2018-11-29T19:18:10.699Z,98924.16
2018-11-29T19:20:38.899Z,98922.56
2018-11-29T19:23:07.262Z,98926.39
2018-11-29T19:25:35.753Z,98922.48
2018-11-29T19:28:03.958Z,98929.27
2018-11-29T19:30:32.397Z,98924.57
2018-11-29T19:33:20.785Z,98917.86
2018-11-29T19:35:52.294Z,98924.23
2018-11-29T19:38:20.469Z,98912.80
2018-11-29T19:40:48.719Z,98924.55
2018-11-29T19:43:16.958Z,98918.80
2018-11-29T19:45:45.245Z,98914.23
2018-11-29T19:48:13.511Z,98918.33
2018-11-29T19:50:41.637Z,98917.68
2018-11-29T19:53:14.356Z,98923.34
2018-11-29T19:55:42.689Z,98909.45
2018-11-29T19:58:10.873Z,98912.08
2018-11-29T20:00:40.125Z,98908.53
2018-11-29T20:03:08.465Z,98910.97
2018-11-29T20:05:36.729Z,98909.03
2018-11-29T20:08:06.144Z,98906.02
2018-11-29T20:10:34.524Z,98891.61
2018-11-29T20:13:05.755Z,98898.09
2018-11-29T20:15:35.309Z,98890.44
2018-11-29T20:18:03.533Z,98890.17
2018-11-29T20:20:31.837Z,98892.17
2018-11-29T20:23:00.086Z,98893.41
2018-11-29T20:25:28.255Z,98888.77
2018-11-29T20:27:56.446Z,98895.34
2018-11-29T20:30:24.855Z,98890.78
2018-11-29T20:32:54.117Z,98888.23
2018-11-29T20:35:22.320Z,98876.77
2018-11-29T20:37:51.583Z,98893.20
2018-11-29T20:40:24.864Z,98897.06
2018-11-29T20:42:54.387Z,98890.56
2018-11-29T20:45:31.071Z,98888.77
2018-11-29T20:47:59.337Z,98884.61
2018-11-29T20:50:29.032Z,98891.48
2018-11-29T20:52:58.749Z,98892.44
2018-11-29T20:55:31.332Z,98894.58
2018-11-29T20:57:59.625Z,98902.14
2018-11-29T21:00:28.645Z,98905.64
2018-11-29T21:02:56.870Z,98909.10
2018-11-29T21:05:25.571Z,98917.98
2018-11-29T21:08:01.808Z,98913.31
2018-11-29T21:10:29.974Z,98911.53
2018-11-29T21:13:02.478Z,98908.80
2018-11-29T21:15:30.739Z,98904.28
2018-11-29T21:17:58.905Z,98899.10
2018-11-29T21:20:27.168Z,98896.69
2018-11-29T21:22:55.351Z,98900.62
2018-11-29T21:25:24.777Z,98907.12
2018-11-29T21:27:52.973Z,98897.16
2018-11-29T21:30:21.216Z,98910.26
2018-11-29T21:32:50.038Z,98919.03
2018-11-29T21:35:21.552Z,98909.41
2018-11-29T21:37:50.668Z,98913.55
2018-11-29T21:40:28.376Z,98914.88
2018-11-29T21:42:56.660Z,98918.00
2018-11-29T21:45:24.922Z,98913.77
2018-11-29T21:47:53.170Z,98913.20
2018-11-29T21:50:21.480Z,98909.23
2018-11-29T21:52:49.653Z,98911.41
2018-11-29T21:55:17.904Z,98903.00
2018-11-29T21:57:46.112Z,98895.80
2018-11-29T22:00:15.587Z,98902.80
2018-11-29T22:02:45.390Z,98906.32
2018-11-29T22:05:13.590Z,98904.03
2018-11-29T22:07:41.833Z,98908.75
2018-11-29T22:10:10.033Z,98913.17
2018-11-29T22:12:38.296Z,98913.66
2018-11-29T22:15:10.273Z,98911.37
2018-11-29T22:18:48.787Z,98902.16
2018-11-29T22:21:17.105Z,98903.26
2018-11-29T22:23:45.278Z,98902.34
2018-11-29T22:26:14.905Z,98906.23
2018-11-29T22:28:43.198Z,98906.13
2018-11-29T22:31:11.360Z,98908.39
2018-11-29T22:33:39.645Z,98907.39
2018-11-29T22:36:07.986Z,98904.74
2018-11-29T22:38:36.215Z,98894.22
2018-11-29T22:41:04.501Z,98895.16
2018-11-29T22:43:32.750Z,98899.75
2018-11-29T22:46:01.094Z,98901.36
2018-11-29T22:48:29.309Z,98899.54
2018-11-29T22:50:58.077Z,98897.02
2018-11-29T22:53:26.903Z,98894.77
2018-11-29T22:55:55.973Z,98887.68
2018-11-29T22:58:24.172Z,98888.47
2018-11-29T23:00:52.999Z,98889.33
2018-11-29T23:03:21.559Z,98891.58
2018-11-29T23:05:49.840Z,98888.48
2018-11-29T23:08:18.206Z,98888.77
2018-11-29T23:10:46.407Z,98893.94
2018-11-29T23:13:14.580Z,98894.22
2018-11-29T23:15:42.744Z,98896.48
2018-11-29T23:18:11.957Z,98894.69
2018-11-29T23:20:40.128Z,98895.52
2018-11-29T23:23:08.493Z,98890.34
2018-11-29T23:25:36.904Z,98887.95
2018-11-29T23:28:06.189Z,98882.30
2018-11-29T23:30:34.482Z,98890.69
2018-11-29T23:33:02.781Z,98904.00
2018-11-29T23:35:31.090Z,98894.77
2018-11-29T23:37:59.264Z,98902.63
2018-11-29T23:40:27.504Z,98898.45
2018-11-29T23:42:55.798Z,98898.95
2018-11-29T23:45:24.138Z,98902.52
2018-11-29T23:47:52.362Z,98895.73
2018-11-29T23:50:22.392Z,98892.91
2018-11-29T23:52:50.631Z,98897.59
2018-11-29T23:55:20.119Z,98892.14
2018-11-29T23:57:48.414Z,98886.27
